createdAt,value
2022-09-28T00:00:14.141Z,98837.73
2022-09-28T00:03:15.698Z,98839.29
2022-09-28T00:06:05.315Z,98835.54
2022-09-28T00:08:49.578Z,98831.16
2022-09-28T00:11:31.231Z,98832.16
2022-09-28T00:14:13.495Z,98834.86
2022-09-28T00:16:55.416Z,98841.63
2022-09-28T00:19:37.107Z,98837.60
2022-09-28T00:22:18.798Z,98833.80
2022-09-28T00:25:00.489Z,98830.17
2022-09-28T00:27:42.306Z,98828.02
2022-09-28T00:30:24.074Z,98826.16
2022-09-28T00:33:05.971Z,98825.29
2022-09-28T00:35:54.318Z,98826.42
2022-09-28T00:38:36.214Z,98825.21
2022-09-28T00:41:18.201Z,98822.70
2022-09-28T00:44:32.056Z,98821.77
2022-09-28T00:47:19.954Z,98819.05
2022-09-28T00:50:07.018Z,98815.92
2022-09-28T00:53:10.921Z,98817.67
2022-09-28T00:55:57.430Z,98813.95
2022-09-28T00:58:46.591Z,98812.76
2022-09-28T01:01:28.794Z,98810.45
2022-09-28T01:04:10.895Z,98811.75
2022-09-28T01:06:52.995Z,98810.80
2022-09-28T01:09:38.679Z,98816.23
2022-09-28T01:12:20.575Z,98820.70
2022-09-28T01:15:03.705Z,98821.36
2022-09-28T01:18:00.751Z,98824.02
2022-09-28T01:21:14.902Z,98826.00
2022-09-28T01:24:11.009Z,98822.27
2022-09-28T01:27:27.027Z,98823.87
2022-09-28T01:30:17.249Z,98820.57
2022-09-28T01:33:05.794Z,98815.06
2022-09-28T01:36:02.923Z,98820.50
2022-09-28T01:38:55.877Z,98824.11
2022-09-28T01:41:41.564Z,98823.48
2022-09-28T01:44:26.223Z,98826.10
2022-09-28T01:47:12.537Z,98829.84
2022-09-28T01:50:09.982Z,98823.61
2022-09-28T01:53:21.501Z,98822.73
2022-09-28T01:56:16.279Z,98828.17
2022-09-28T01:59:06.739Z,98827.49
2022-09-28T02:01:57.730Z,98826.09
2022-09-28T02:04:49.810Z,98831.05
2022-09-28T02:07:45.328Z,98831.44
2022-09-28T02:10:46.371Z,98832.67
2022-09-28T02:13:37.689Z,98832.92
2022-09-28T02:16:32.720Z,98831.86
2022-09-28T02:19:21.445Z,98832.56
2022-09-28T02:22:25.255Z,98834.90
2022-09-28T02:25:29.211Z,98838.82
2022-09-28T02:28:13.683Z,98841.51
2022-09-28T02:30:55.314Z,98843.57
2022-09-28T02:33:40.816Z,98843.67
2022-09-28T02:36:24.930Z,98843.30
2022-09-28T02:39:14.143Z,98841.45
2022-09-28T02:42:21.399Z,98842.89
2022-09-28T02:45:48.419Z,98846.81
2022-09-28T02:49:17.275Z,98848.20
2022-09-28T02:52:24.952Z,98851.20
2022-09-28T02:55:19.133Z,98848.73
2022-09-28T02:58:07.277Z,98844.23
2022-09-28T03:01:02.194Z,98838.77
2022-09-28T03:04:17.353Z,98834.66
2022-09-28T03:07:11.535Z,98834.87
2022-09-28T03:10:02.898Z,98831.02
2022-09-28T03:12:48.406Z,98829.88
2022-09-28T03:15:33.630Z,98828.60
2022-09-28T03:18:15.507Z,98826.16
2022-09-28T03:20:57.870Z,98822.39
2022-09-28T03:23:41.475Z,98821.86
2022-09-28T03:26:23.240Z,98821.63
2022-09-28T03:29:05.338Z,98819.38
2022-09-28T03:31:48.117Z,98820.08
2022-09-28T03:34:29.850Z,98824.17
2022-09-28T03:37:11.844Z,98826.04
2022-09-28T03:39:53.842Z,98824.15
2022-09-28T03:42:37.016Z,98820.96
2022-09-28T03:45:19.143Z,98817.40
2022-09-28T03:48:03.115Z,98814.42
2022-09-28T03:50:44.805Z,98814.19
2022-09-28T03:53:26.597Z,98812.14
2022-09-28T03:56:14.231Z,98810.67
2022-09-28T03:58:56.533Z,98813.36
2022-09-28T04:01:38.222Z,98814.21
2022-09-28T04:04:20.326Z,98814.70
2022-09-28T04:07:02.119Z,98815.29
2022-09-28T04:09:43.808Z,98816.17
2022-09-28T04:12:25.499Z,98822.02
2022-09-28T04:15:07.811Z,98828.89
2022-09-28T04:17:49.598Z,98833.37
2022-09-28T04:20:48.390Z,98833.95
2022-09-28T04:23:30.903Z,98837.51
2022-09-28T04:26:19.062Z,98841.31
2022-09-28T04:29:16.232Z,98839.89
2022-09-28T04:32:02.417Z,98841.97
2022-09-28T04:34:50.129Z,98837.65
2022-09-28T04:37:31.816Z,98833.61
2022-09-28T04:40:13.609Z,98834.66
2022-09-28T04:42:56.840Z,98834.52
2022-09-28T04:45:39.790Z,98831.97
2022-09-28T04:48:25.236Z,98829.45
2022-09-28T04:51:20.034Z,98829.72
2022-09-28T04:54:01.699Z,98825.20
2022-09-28T04:56:43.362Z,98823.92
2022-09-28T04:59:25.108Z,98822.04
2022-09-28T05:02:07.130Z,98821.98
2022-09-28T05:05:08.157Z,98823.23
2022-09-28T05:07:58.995Z,98822.23
2022-09-28T05:10:40.850Z,98824.55
2022-09-28T05:13:22.848Z,98825.44
2022-09-28T05:16:05.708Z,98821.88
2022-09-28T05:18:57.426Z,98823.36
2022-09-28T05:21:39.240Z,98820.06
2022-09-28T05:24:20.894Z,98819.63
2022-09-28T05:27:05.893Z,98816.04
2022-09-28T05:29:52.406Z,98820.45
2022-09-28T05:32:46.325Z,98823.58
2022-09-28T05:35:40.819Z,98818.95
2022-09-28T05:38:22.816Z,98825.80
2022-09-28T05:41:06.821Z,98824.03
2022-09-28T05:43:48.858Z,98825.84
2022-09-28T05:46:30.991Z,98828.59
2022-09-28T05:49:15.107Z,98823.55
2022-09-28T05:56:24.048Z,98821.11
2022-09-28T05:59:09.544Z,98823.55
2022-09-28T06:01:51.747Z,98818.40
2022-09-28T06:04:33.643Z,98814.43
2022-09-28T06:07:15.642Z,98813.31
2022-09-28T06:09:58.317Z,98811.02
2022-09-28T06:13:06.879Z,98813.27
2022-09-28T06:15:48.567Z,98814.89
2022-09-28T06:18:30.259Z,98812.51
2022-09-28T06:21:32.224Z,98817.16
2022-09-28T06:24:14.061Z,98814.19
2022-09-28T06:26:55.913Z,98812.33
2022-09-28T06:29:37.605Z,98808.03
2022-09-28T06:32:19.910Z,98812.56
2022-09-28T06:35:03.855Z,98812.46
2022-09-28T06:37:45.645Z,98809.42
2022-09-28T06:40:28.196Z,98812.64
2022-09-28T06:43:14.890Z,98813.08
2022-09-28T06:46:15.782Z,98809.14
2022-09-28T06:49:09.479Z,98816.23
2022-09-28T06:52:29.468Z,98817.67
2022-09-28T06:55:28.670Z,98816.17
2022-09-28T06:58:14.997Z,98814.98
2022-09-28T07:00:59.891Z,98811.45
2022-09-28T07:03:43.572Z,98814.19
2022-09-28T07:06:37.459Z,98814.36
2022-09-28T07:09:43.730Z,98809.64
2022-09-28T07:12:38.004Z,98808.27
2022-09-28T07:15:36.691Z,98803.42
2022-09-28T07:18:18.856Z,98806.42
2022-09-28T07:21:02.941Z,98812.44
2022-09-28T07:23:53.491Z,98811.98
2022-09-28T07:26:38.508Z,98810.27
2022-09-28T07:29:28.493Z,98808.30
2022-09-28T07:32:28.925Z,98811.20
2022-09-28T07:35:22.699Z,98806.09
2022-09-28T07:38:08.076Z,98803.15
2022-09-28T07:41:08.579Z,98799.29
2022-09-28T07:43:50.917Z,98797.97
2022-09-28T07:46:37.238Z,98791.47
2022-09-28T07:49:33.016Z,98792.27
2022-09-28T07:52:28.961Z,98794.15
2022-09-28T07:55:24.884Z,98799.42
2022-09-28T07:58:22.858Z,98801.83
2022-09-28T08:01:17.794Z,98802.73
2022-09-28T08:03:59.654Z,98799.02
2022-09-28T08:06:41.450Z,98795.34
2022-09-28T08:09:25.215Z,98799.06
2022-09-28T08:12:42.205Z,98798.76
2022-09-28T08:15:43.250Z,98802.18
2022-09-28T08:18:32.006Z,98804.79
2022-09-28T08:21:32.640Z,98802.74
2022-09-28T08:24:16.568Z,98811.17
2022-09-28T08:26:59.164Z,98813.07
2022-09-28T08:29:43.550Z,98814.73
2022-09-28T08:32:51.046Z,98808.01
2022-09-28T08:36:01.308Z,98808.83
2022-09-28T08:39:01.941Z,98808.23
2022-09-28T08:42:10.973Z,98802.82
2022-09-28T08:45:15.475Z,98792.89
2022-09-28T08:48:40.815Z,98787.06
2022-09-28T08:51:50.781Z,98795.67
2022-09-28T08:54:49.558Z,98792.58
2022-09-28T08:57:58.385Z,98787.79
2022-09-28T09:00:50.296Z,98789.80
2022-09-28T09:03:36.412Z,98789.89
2022-09-28T09:07:06.539Z,98783.92
2022-09-28T09:10:28.782Z,98781.83
2022-09-28T09:13:31.666Z,98784.84
2022-09-28T09:16:42.325Z,98784.01
2022-09-28T09:20:04.484Z,98779.20
2022-09-28T09:23:12.722Z,98772.64
2022-09-28T09:26:03.949Z,98771.27
2022-09-28T09:28:56.449Z,98765.08
2022-09-28T09:32:27.599Z,98765.63
2022-09-28T09:35:41.959Z,98761.46
2022-09-28T09:39:08.498Z,98762.34
2022-09-28T09:42:51.529Z,98763.81
2022-09-28T09:46:17.014Z,98765.98
2022-09-28T09:49:45.329Z,98763.14
2022-09-28T09:52:46.783Z,98761.11
2022-09-28T09:55:42.195Z,98758.24
2022-09-28T09:58:52.999Z,98755.52
2022-09-28T10:01:41.240Z,98755.33
2022-09-28T10:04:44.552Z,98758.42
2022-09-28T10:07:45.046Z,98756.00
2022-09-28T10:10:34.517Z,98752.11
2022-09-28T10:13:25.525Z,98756.48
2022-09-28T10:16:09.471Z,98754.70
2022-09-28T10:19:00.682Z,98753.39
2022-09-28T10:22:16.678Z,98754.77
2022-09-28T10:25:00.145Z,98752.44
2022-09-28T10:27:46.200Z,98753.23
2022-09-28T10:30:28.674Z,98749.06
2022-09-28T10:33:29.454Z,98744.98
2022-09-28T10:36:11.658Z,98740.14
2022-09-28T10:38:54.652Z,98736.69
2022-09-28T10:41:50.585Z,98737.71
2022-09-28T10:44:48.881Z,98732.13
2022-09-28T10:47:44.501Z,98728.69
2022-09-28T10:50:28.259Z,98733.27
2022-09-28T10:53:20.658Z,98727.97
2022-09-28T10:56:22.774Z,98727.41
2022-09-28T10:59:30.760Z,98729.84
2022-09-28T11:02:36.333Z,98725.67
2022-09-28T11:05:33.874Z,98726.05
2022-09-28T11:08:39.728Z,98724.78
2022-09-28T11:11:23.543Z,98725.55
2022-09-28T11:14:39.777Z,98723.13
2022-09-28T11:17:40.750Z,98727.05
2022-09-28T11:20:28.164Z,98731.67
2022-09-28T11:23:23.037Z,98733.38
2022-09-28T11:26:09.203Z,98736.50
2022-09-28T11:28:53.116Z,98735.52
2022-09-28T11:31:47.674Z,98735.68
2022-09-28T11:34:58.511Z,98735.59
2022-09-28T11:38:13.211Z,98733.40
2022-09-28T11:41:26.130Z,98735.52
2022-09-28T11:44:18.575Z,98734.71
2022-09-28T11:47:33.546Z,98725.75
2022-09-28T11:50:32.440Z,98731.13
2022-09-28T11:53:30.412Z,98727.73
2022-09-28T11:56:32.889Z,98725.67
2022-09-28T11:59:27.892Z,98726.78
2022-09-28T12:02:17.356Z,98722.54
2022-09-28T12:05:21.047Z,98719.27
2022-09-28T12:08:19.046Z,98718.28
2022-09-28T12:11:24.294Z,98718.30
2022-09-28T12:14:38.414Z,98714.08
2022-09-28T12:17:39.058Z,98714.52
2022-09-28T12:20:30.085Z,98715.52
2022-09-28T12:23:35.943Z,98716.77
2022-09-28T12:26:37.175Z,98714.50
2022-09-28T12:29:28.509Z,98712.31
2022-09-28T12:32:12.965Z,98711.50
2022-09-28T12:34:54.656Z,98712.41
2022-09-28T12:37:56.622Z,98711.77
2022-09-28T12:40:58.301Z,98709.23
2022-09-28T12:44:09.601Z,98711.25
2022-09-28T12:47:08.929Z,98711.81
2022-09-28T12:50:39.043Z,98707.33
2022-09-28T12:53:50.078Z,98709.58
2022-09-28T12:56:54.340Z,98707.52
2022-09-28T12:59:42.342Z,98706.86
2022-09-28T13:02:41.926Z,98702.58
2022-09-28T13:06:04.597Z,98703.63
2022-09-28T13:09:21.123Z,98703.41
2022-09-28T13:12:19.795Z,98703.31
2022-09-28T13:15:20.094Z,98702.20
2022-09-28T13:18:09.171Z,98700.92
2022-09-28T13:20:59.613Z,98700.55
2022-09-28T13:23:43.693Z,98697.69
2022-09-28T13:26:32.028Z,98692.02
2022-09-28T13:29:18.438Z,98691.55
2022-09-28T13:32:04.126Z,98691.70
2022-09-28T13:34:50.683Z,98690.11
2022-09-28T13:37:34.844Z,98689.33
2022-09-28T13:40:17.649Z,98690.39
2022-09-28T13:43:09.828Z,98694.51
2022-09-28T13:45:54.779Z,98708.58
2022-09-28T13:48:48.918Z,98712.23
2022-09-28T13:51:46.788Z,98706.99
2022-09-28T13:55:02.681Z,98717.52
2022-09-28T13:57:53.252Z,98728.15
2022-09-28T14:00:45.683Z,98729.40
2022-09-28T14:04:09.810Z,98719.33
2022-09-28T14:06:57.371Z,98708.98
2022-09-28T14:09:43.192Z,98706.87
2022-09-28T14:12:43.246Z,98708.39
2022-09-28T14:15:37.511Z,98705.67
2022-09-28T14:18:25.828Z,98713.89
2022-09-28T14:21:34.399Z,98720.95
2022-09-28T14:24:37.290Z,98717.40
2022-09-28T14:27:37.620Z,98720.13
2022-09-28T14:30:23.367Z,98723.88
2022-09-28T14:33:22.510Z,98721.02
2022-09-28T14:36:07.793Z,98727.14
2022-09-28T14:39:08.823Z,98730.45
2022-09-28T14:41:51.843Z,98741.27
2022-09-28T14:45:06.329Z,98745.91
2022-09-28T14:48:14.413Z,98745.38
2022-09-28T14:51:25.087Z,98744.39
2022-09-28T14:54:13.024Z,98742.86
2022-09-28T14:56:58.295Z,98738.71
2022-09-28T14:59:43.749Z,98739.65
2022-09-28T15:02:33.043Z,98740.42
2022-09-28T15:05:20.512Z,98737.77
2022-09-28T15:08:02.876Z,98735.36
2022-09-28T15:10:50.271Z,98732.65
2022-09-28T15:13:32.402Z,98724.39
2022-09-28T15:16:17.274Z,98724.87
2022-09-28T15:19:21.150Z,98719.31
2022-09-28T15:22:02.973Z,98716.53
2022-09-28T15:24:56.641Z,98724.33
2022-09-28T15:27:41.611Z,98727.41
2022-09-28T15:30:35.095Z,98726.75
2022-09-28T15:33:51.075Z,98726.75
2022-09-28T15:36:41.295Z,98726.37
2022-09-28T15:39:34.294Z,98725.14
2022-09-28T15:42:18.538Z,98721.16
2022-09-28T15:45:22.794Z,98727.80
2022-09-28T15:48:31.173Z,98725.73
2022-09-28T15:51:13.747Z,98727.40
2022-09-28T15:54:09.425Z,98731.50
2022-09-28T15:56:54.979Z,98730.48
2022-09-28T15:59:39.418Z,98734.30
2022-09-28T16:02:26.090Z,98731.99
2022-09-28T16:05:36.338Z,98733.73
2022-09-28T16:08:36.809Z,98737.02
2022-09-28T16:11:27.582Z,98737.70
2022-09-28T16:14:22.482Z,98737.71
2022-09-28T16:17:04.477Z,98739.84
2022-09-28T16:19:48.833Z,98741.49
2022-09-28T16:22:32.978Z,98744.92
2022-09-28T16:25:23.966Z,98747.52
2022-09-28T16:28:07.114Z,98747.45
2022-09-28T16:31:08.011Z,98750.53
2022-09-28T16:33:55.936Z,98749.44
2022-09-28T16:36:46.673Z,98751.20
2022-09-28T16:39:28.803Z,98750.70
2022-09-28T16:42:13.046Z,98755.30
2022-09-28T16:44:56.859Z,98756.89
2022-09-28T16:47:40.322Z,98762.70
2022-09-28T16:50:24.235Z,98761.78
2022-09-28T16:53:36.674Z,98763.90
2022-09-28T16:56:18.878Z,98764.38
2022-09-28T16:59:02.938Z,98766.21
2022-09-28T17:01:45.072Z,98770.05
2022-09-28T17:04:27.431Z,98772.55
2022-09-28T17:07:13.703Z,98772.77
2022-09-28T17:09:55.856Z,98773.94
2022-09-28T17:12:38.648Z,98772.16
2022-09-28T17:15:20.544Z,98770.67
2022-09-28T17:18:03.157Z,98769.87
2022-09-28T17:20:49.661Z,98768.64
2022-09-28T17:23:31.434Z,98771.24
2022-09-28T17:26:33.712Z,98771.36
2022-09-28T17:29:16.651Z,98767.77
2022-09-28T17:31:58.307Z,98771.94
2022-09-28T17:34:40.037Z,98772.73
2022-09-28T17:37:21.712Z,98769.52
2022-09-28T17:40:16.725Z,98776.45
2022-09-28T17:42:59.208Z,98776.69
2022-09-28T17:45:41.163Z,98776.98
2022-09-28T17:48:23.677Z,98775.54
2022-09-28T17:51:05.767Z,98774.61
2022-09-28T17:53:47.535Z,98779.27
2022-09-28T17:56:32.364Z,98778.02
2022-09-28T17:59:17.683Z,98778.59
2022-09-28T18:02:02.172Z,98779.35
2022-09-28T18:04:52.605Z,98781.39
2022-09-28T18:07:34.583Z,98784.65
2022-09-28T18:10:21.844Z,98788.70
2022-09-28T18:13:03.537Z,98790.20
2022-09-28T18:15:45.265Z,98788.62
2022-09-28T18:18:27.630Z,98792.42
2022-09-28T18:21:10.451Z,98793.25
2022-09-28T18:23:52.552Z,98795.19
2022-09-28T18:26:35.370Z,98795.50
2022-09-28T18:29:18.851Z,98796.69
2022-09-28T18:32:02.747Z,98800.39
2022-09-28T18:34:44.544Z,98803.80
2022-09-28T18:37:26.843Z,98804.87
2022-09-28T18:40:10.070Z,98803.86
2022-09-28T18:42:53.061Z,98806.74
2022-09-28T18:45:36.527Z,98804.80
2022-09-28T18:48:18.931Z,98806.08
2022-09-28T18:51:00.623Z,98810.00
2022-09-28T18:53:43.135Z,98811.27
2022-09-28T18:56:26.565Z,98818.03
2022-09-28T18:59:12.369Z,98818.56
2022-09-28T19:01:55.382Z,98817.25
2022-09-28T19:04:43.022Z,98822.04
2022-09-28T19:07:25.438Z,98820.58
2022-09-28T19:10:07.886Z,98825.20
2022-09-28T19:12:52.071Z,98822.89
2022-09-28T19:15:34.751Z,98819.86
2022-09-28T19:18:16.886Z,98824.16
2022-09-28T19:21:02.995Z,98826.75
2022-09-28T19:23:49.803Z,98827.20
2022-09-28T19:26:33.734Z,98830.23
2022-09-28T19:29:16.259Z,98836.17
2022-09-28T19:31:58.345Z,98836.30
2022-09-28T19:34:40.038Z,98836.46
2022-09-28T19:37:21.830Z,98836.42
2022-09-28T19:40:05.979Z,98842.39
2022-09-28T19:42:48.386Z,98838.76
2022-09-28T19:45:31.000Z,98839.14
2022-09-28T19:48:12.690Z,98836.95
2022-09-28T19:51:02.860Z,98838.64
2022-09-28T19:53:44.570Z,98842.41
2022-09-28T19:56:26.263Z,98847.00
2022-09-28T19:59:10.412Z,98851.96
2022-09-28T20:01:56.128Z,98855.50
2022-09-28T20:04:38.029Z,98853.13
2022-09-28T20:07:19.681Z,98856.41
2022-09-28T20:10:04.032Z,98858.10
2022-09-28T20:12:46.442Z,98860.94
2022-09-28T20:15:28.895Z,98860.52
2022-09-28T20:18:12.531Z,98862.95
2022-09-28T20:21:07.919Z,98863.82
2022-09-28T20:23:50.102Z,98868.54
2022-09-28T20:26:37.528Z,98869.67
2022-09-28T20:29:20.960Z,98870.35
2022-09-28T20:32:04.218Z,98872.05
2022-09-28T20:34:45.997Z,98876.21
2022-09-28T20:37:27.671Z,98879.73
2022-09-28T20:40:11.167Z,98881.98
2022-09-28T20:42:52.793Z,98878.98
2022-09-28T20:45:37.634Z,98877.11
2022-09-28T20:48:19.862Z,98879.17
2022-09-28T20:51:14.147Z,98882.23
2022-09-28T20:53:57.476Z,98884.46
2022-09-28T20:56:39.476Z,98887.45
2022-09-28T20:59:24.444Z,98887.29
2022-09-28T21:02:06.133Z,98891.27
2022-09-28T21:04:47.826Z,98892.72
2022-09-28T21:07:29.515Z,98899.20
2022-09-28T21:10:11.206Z,98902.95
2022-09-28T21:12:53.408Z,98908.07
2022-09-28T21:15:35.115Z,98910.27
2022-09-28T21:18:19.249Z,98909.05
2022-09-28T21:21:00.940Z,98918.45
2022-09-28T21:23:45.067Z,98921.19
2022-09-28T21:26:29.250Z,98919.17
2022-09-28T21:29:13.387Z,98924.58
2022-09-28T21:31:55.178Z,98925.25
2022-09-28T21:34:36.973Z,98930.23
2022-09-28T21:37:18.662Z,98932.71
2022-09-28T21:40:02.611Z,98935.52
2022-09-28T21:42:44.297Z,98940.88
2022-09-28T21:45:26.192Z,98943.23
2022-09-28T21:48:07.883Z,98946.61
2022-09-28T21:51:00.127Z,98948.88
2022-09-28T21:53:42.750Z,98952.96
2022-09-28T21:56:24.426Z,98959.04
2022-09-28T21:59:06.121Z,98961.19
2022-09-28T22:01:48.382Z,98966.00
2022-09-28T22:04:30.112Z,98968.78
2022-09-28T22:07:12.314Z,98970.19
2022-09-28T22:09:54.007Z,98979.06
2022-09-28T22:12:35.697Z,98977.73
2022-09-28T22:15:17.490Z,98982.21
2022-09-28T22:17:59.181Z,98981.99
2022-09-28T22:20:40.872Z,98982.44
2022-09-28T22:23:22.564Z,98986.27
2022-09-28T22:26:08.200Z,98989.23
2022-09-28T22:28:56.009Z,98990.40
2022-09-28T22:31:40.146Z,98991.33
2022-09-28T22:34:21.770Z,98994.66
2022-09-28T22:37:03.816Z,98996.57
2022-09-28T22:39:45.509Z,98998.58
2022-09-28T22:42:27.199Z,98997.36
2022-09-28T22:45:08.891Z,99006.10
2022-09-28T22:47:50.640Z,99007.24
2022-09-28T22:50:32.272Z,99010.23
2022-09-28T22:53:14.373Z,99012.38
2022-09-28T22:55:57.906Z,99012.98
2022-09-28T22:58:39.597Z,99016.08
2022-09-28T23:01:27.178Z,99014.45
2022-09-28T23:04:09.431Z,99019.23
2022-09-28T23:06:51.121Z,99021.16
2022-09-28T23:09:33.119Z,99022.36
2022-09-28T23:12:15.015Z,99021.17
2022-09-28T23:14:56.637Z,99023.96
2022-09-28T23:17:38.297Z,99026.81
2022-09-28T23:20:21.112Z,99033.67
2022-09-28T23:23:03.362Z,99033.13
2022-09-28T23:25:45.004Z,99037.02
2022-09-28T23:28:27.415Z,99040.21
2022-09-28T23:31:21.429Z,99043.04
2022-09-28T23:34:05.463Z,99045.47
2022-09-28T23:36:47.539Z,99047.18
2022-09-28T23:39:29.230Z,99043.14
2022-09-28T23:42:11.024Z,99046.30
2022-09-28T23:44:52.714Z,99046.38
2022-09-28T23:47:37.477Z,99045.20
2022-09-28T23:50:19.167Z,99048.75
2022-09-28T23:53:00.895Z,99045.72
2022-09-28T23:55:43.574Z,99047.73
2022-09-28T23:58:25.983Z,99043.98
